Time;durP1;ratioP1;P1;durP2;ratioP2;P2;SDS_P1;SDS_P2;PMS_P1;PMS_P2;Temp;Humidity;BMP_temperature;BMP_pressure;BME280_temperature;BME280_humidity;BME280_pressure;Samples;Min_cycle;Max_cycle;Signal;HPM_P1;HPM_P2
2022/01/30 00:02:17;;;;;;;43.08;20.08;;;;;;;-142.02;100.00;61695.09;5009076;28;20050;-72
2022/01/30 00:04:43;;;;;;;48.53;24.42;;;;;;;-142.02;100.00;61695.09;4991841;28;20046;-74
2022/01/30 00:07:10;;;;;;;35.90;19.73;;;;;;;-142.02;100.00;61695.09;5009198;28;20136;-73
2022/01/30 00:09:36;;;;;;;22.95;15.10;;;;;;;-142.02;100.00;61695.09;5013155;28;20132;-73
2022/01/30 00:12:04;;;;;;;36.13;21.10;;;;;;;-142.02;100.00;61695.09;5012637;28;20148;-73
2022/01/30 00:14:34;;;;;;;36.80;20.25;;;;;;;-142.02;100.00;61695.09;5013027;28;20104;-73
2022/01/30 00:17:10;;;;;;;27.90;16.48;;;;;;;-142.02;100.00;61695.09;5012945;28;20648;-73
2022/01/30 00:25:06;;;;;;;17.77;11.60;;;;;;;-142.02;100.00;61695.09;4995330;28;20054;-73
2022/01/30 00:27:44;;;;;;;17.55;10.80;;;;;;;-142.02;100.00;61695.09;4996699;28;20049;-73
2022/01/30 00:30:13;;;;;;;28.00;14.88;;;;;;;-142.02;100.00;61695.09;5014315;28;20046;-72
2022/01/30 00:32:39;;;;;;;25.70;15.30;;;;;;;-142.02;100.00;61695.09;5013303;28;20048;-73
2022/01/30 00:35:08;;;;;;;27.45;14.93;;;;;;;-142.02;100.00;61695.09;5012722;28;20049;-72
2022/01/30 00:37:39;;;;;;;18.73;10.57;;;;;;;-142.02;100.00;61695.09;5012802;28;20057;-70
2022/01/30 00:40:06;;;;;;;27.15;15.18;;;;;;;-142.02;100.00;61695.09;4995113;28;20060;-71
2022/01/30 00:42:32;;;;;;;27.80;14.85;;;;;;;-142.02;100.00;61695.09;4962695;28;20398;-72
2022/01/30 00:44:58;;;;;;;31.25;15.93;;;;;;;-142.02;100.00;61695.09;5012393;28;20054;-73
2022/01/30 00:47:24;;;;;;;23.50;11.88;;;;;;;-142.02;100.00;61695.09;5012517;28;20065;-72
2022/01/30 00:49:50;;;;;;;32.10;17.75;;;;;;;-142.02;100.00;61695.09;4995131;28;20057;-74
2022/01/30 00:52:17;;;;;;;31.83;16.70;;;;;;;-142.02;100.00;61695.09;4994547;28;20049;-72
2022/01/30 00:54:44;;;;;;;33.55;16.50;;;;;;;-142.02;100.00;61695.09;4978705;28;20480;-74
2022/01/30 00:57:11;;;;;;;37.38;18.88;;;;;;;-142.02;100.00;61695.09;5011843;28;20144;-73
2022/01/30 00:59:37;;;;;;;35.90;17.95;;;;;;;-142.02;100.00;61695.09;5012599;28;20641;-72
2022/01/30 01:02:03;;;;;;;36.40;19.02;;;;;;;-142.02;100.00;61695.09;5011993;28;20052;-73
2022/01/30 01:04:29;;;;;;;34.92;16.40;;;;;;;-142.02;100.00;61695.09;4994747;28;20073;-72
2022/01/30 01:06:56;;;;;;;40.00;17.38;;;;;;;-142.02;100.00;61695.09;5011736;28;20049;-73
2022/01/30 01:09:27;;;;;;;37.35;17.95;;;;;;;-142.02;100.00;61695.09;5012182;28;20521;-73
2022/01/30 01:12:35;;;;;;;29.15;14.13;;;;;;;-142.02;100.00;61695.09;5012097;28;20133;-75
2022/01/30 01:23:31;;;;;;;17.98;12.45;;;;;;;-142.02;100.00;61695.09;5013638;28;20577;-73
2022/01/30 01:25:57;;;;;;;20.50;12.30;;;;;;;-142.02;100.00;61695.09;4994419;28;20068;-74
2022/01/30 01:28:23;;;;;;;15.82;10.65;;;;;;;-142.02;100.00;61695.09;4997205;28;20101;-72
2022/01/30 01:30:49;;;;;;;18.27;11.30;;;;;;;-142.02;100.00;61695.09;5013170;28;20038;-72
2022/01/30 01:33:16;;;;;;;21.85;12.75;;;;;;;-142.02;100.00;61695.09;5001004;28;20096;-74
2022/01/30 01:35:42;;;;;;;21.58;13.60;;;;;;;-142.02;100.00;61695.09;5020284;28;20049;-74
2022/01/30 01:38:11;;;;;;;11.50;8.93;;;;;;;-142.02;100.00;61695.09;4985705;28;20054;-73
2022/01/30 01:40:42;;;;;;;25.42;16.13;;;;;;;-142.02;100.00;61695.09;4985184;28;20049;-73
2022/01/30 01:43:08;;;;;;;18.48;12.38;;;;;;;-142.02;100.00;61695.09;4983788;28;20473;-72
2022/01/30 01:45:38;;;;;;;18.80;12.68;;;;;;;-142.02;100.00;61695.09;4994857;28;20052;-73
2022/01/30 01:48:10;;;;;;;19.55;12.95;;;;;;;-142.02;100.00;61695.09;4994588;28;20058;-74
2022/01/30 01:50:43;;;;;;;22.65;13.68;;;;;;;-142.02;100.00;61695.09;4995377;28;20128;-73
2022/01/30 01:53:14;;;;;;;22.67;14.02;;;;;;;-142.02;100.00;61695.09;4977214;28;20153;-72
2022/01/30 01:55:41;;;;;;;22.98;14.30;;;;;;;-142.02;100.00;61695.09;5011132;28;20050;-71
2022/01/30 01:58:13;;;;;;;24.85;15.43;;;;;;;-142.02;100.00;61695.09;4993394;28;20149;-72
2022/01/30 02:01:02;;;;;;;25.85;15.52;;;;;;;-142.02;100.00;61695.09;4993363;28;20192;-73
2022/01/30 02:03:28;;;;;;;29.35;16.63;;;;;;;-142.02;100.00;61695.09;4977645;28;20051;-73
2022/01/30 02:05:58;;;;;;;22.98;13.73;;;;;;;-142.02;100.00;61695.09;5010918;28;20085;-73
2022/01/30 02:08:31;;;;;;;25.52;14.52;;;;;;;-142.02;100.00;61695.09;4979497;28;20581;-72
2022/01/30 02:11:08;;;;;;;25.80;15.85;;;;;;;-142.02;100.00;61695.09;4978929;28;20088;-73
2022/01/30 02:27:19;;;;;;;27.45;14.60;;;;;;;-142.02;100.00;61695.09;5011665;28;20565;-74
2022/01/30 02:29:45;;;;;;;26.00;15.43;;;;;;;-142.02;100.00;61695.09;5012398;28;20476;-72
2022/01/30 02:32:11;;;;;;;21.95;14.05;;;;;;;-142.02;100.00;61695.09;4988231;28;20053;-71
2022/01/30 02:34:37;;;;;;;32.13;18.83;;;;;;;-142.02;100.00;61695.09;4991711;28;20418;-74
2022/01/30 02:37:04;;;;;;;19.30;14.15;;;;;;;-142.02;100.00;61695.09;4957219;28;20050;-73
2022/01/30 02:39:30;;;;;;;24.20;13.73;;;;;;;-142.02;100.00;61695.09;4973956;28;20093;-73
2022/01/30 02:41:56;;;;;;;23.75;16.00;;;;;;;-142.02;100.00;61695.09;4973584;28;20058;-72
2022/01/30 02:44:32;;;;;;;27.77;16.90;;;;;;;-142.02;100.00;61695.09;4974001;28;20411;-72
2022/01/30 02:47:02;;;;;;;13.52;9.50;;;;;;;-142.02;100.00;61695.09;4992656;28;20074;-73
2022/01/30 02:49:42;;;;;;;13.80;10.27;;;;;;;-142.02;100.00;61695.09;4982082;28;20173;-73
2022/01/30 02:52:10;;;;;;;21.67;13.32;;;;;;;-142.02;100.00;61695.09;4993106;28;20476;-73
2022/01/30 02:54:36;;;;;;;19.23;12.32;;;;;;;-142.02;100.00;61695.09;4994508;28;20429;-74
2022/01/30 02:57:02;;;;;;;10.73;8.15;;;;;;;-142.02;100.00;61695.09;5012138;28;20049;-74
2022/01/30 02:59:28;;;;;;;16.50;9.15;;;;;;;-142.02;100.00;61695.09;4997758;28;20054;-74
2022/01/30 03:01:54;;;;;;;27.77;17.50;;;;;;;-142.02;100.00;61695.09;4979887;28;20050;-74
2022/01/30 03:04:20;;;;;;;19.75;12.98;;;;;;;-142.02;100.00;61695.09;4979727;28;20510;-73
2022/01/30 03:06:47;;;;;;;20.25;13.32;;;;;;;-142.02;100.00;61695.09;5011809;28;20438;-73
2022/01/30 03:09:33;;;;;;;19.38;12.50;;;;;;;-142.02;100.00;61695.09;4980130;28;20429;-74
2022/01/30 03:11:59;;;;;;;22.40;14.30;;;;;;;-142.02;100.00;61695.09;4994337;28;20050;-73
2022/01/30 03:14:25;;;;;;;28.95;19.13;;;;;;;-142.02;100.00;61695.09;5013188;28;20057;-73
2022/01/30 03:16:51;;;;;;;10.60;8.57;;;;;;;-142.02;100.00;61695.09;4962955;28;20426;-74
2022/01/30 03:19:18;;;;;;;22.10;14.23;;;;;;;-142.02;100.00;61695.09;4979164;28;20049;-73
2022/01/30 03:21:44;;;;;;;21.33;15.10;;;;;;;-142.02;100.00;61695.09;4994742;28;20169;-73
2022/01/30 03:24:10;;;;;;;27.88;20.02;;;;;;;-142.02;100.00;61695.09;4978413;28;20081;-72
2022/01/30 03:26:39;;;;;;;5.43;5.00;;;;;;;-142.02;100.00;61695.09;4993278;28;20046;-73
2022/01/30 03:29:28;;;;;;;10.38;8.23;;;;;;;-142.02;100.00;61695.09;5007632;28;20208;-74
2022/01/30 03:31:54;;;;;;;8.55;7.75;;;;;;;-142.02;100.00;61695.09;4979433;28;20517;-72
2022/01/30 03:34:20;;;;;;;7.75;6.95;;;;;;;-142.02;100.00;61695.09;5012907;28;20046;-73
2022/01/30 03:36:50;;;;;;;5.30;4.80;;;;;;;-142.02;100.00;61695.09;4979768;28;20061;-73
2022/01/30 03:39:17;;;;;;;6.63;6.05;;;;;;;-142.02;100.00;61695.09;4981830;28;20280;-72
2022/01/30 03:41:43;;;;;;;4.43;4.05;;;;;;;-142.02;100.00;61695.09;5009499;28;20107;-73
2022/01/30 03:44:13;;;;;;;4.60;4.05;;;;;;;-142.02;100.00;61695.09;5007819;28;20046;-75
2022/01/30 03:46:39;;;;;;;6.38;5.78;;;;;;;-142.02;100.00;61695.09;5012872;28;20038;-73
2022/01/30 03:49:05;;;;;;;4.93;4.53;;;;;;;-142.02;100.00;61695.09;4998641;28;20058;-72
2022/01/30 03:51:36;;;;;;;;;;;;;;;-142.02;100.00;61695.09;4998969;28;20433;-73
2022/01/30 03:54:16;;;;;;;6.13;5.63;;;;;;;-142.02;100.00;61695.09;4999246;28;19929;-74
2022/01/30 03:56:42;;;;;;;4.78;4.35;;;;;;;-142.02;100.00;61695.09;4982814;28;20114;-73
2022/01/30 03:59:08;;;;;;;4.03;3.72;;;;;;;-142.02;100.00;61695.09;4998427;28;20473;-73
2022/01/30 04:01:35;;;;;;;4.75;4.40;;;;;;;-142.02;100.00;61695.09;4998718;28;20078;-74
2022/01/30 04:04:01;;;;;;;3.60;3.30;;;;;;;-142.02;100.00;61695.09;4998182;28;20054;-73
2022/01/30 04:06:27;;;;;;;5.10;4.60;;;;;;;-142.02;100.00;61695.09;4981063;28;20054;-73
2022/01/30 04:08:55;;;;;;;4.90;4.50;;;;;;;-142.02;100.00;61695.09;4965175;28;20053;-73
2022/01/30 04:11:35;;;;;;;5.82;5.22;;;;;;;-142.02;100.00;61695.09;4982769;28;20054;-73
2022/01/30 04:14:16;;;;;;;6.50;5.90;;;;;;;-142.02;100.00;61695.09;4997123;28;20149;-73
2022/01/30 04:17:09;;;;;;;5.07;4.63;;;;;;;-142.02;100.00;61695.09;4997586;28;20478;-73
2022/01/30 04:19:51;;;;;;;8.95;7.10;;;;;;;-142.02;100.00;61695.09;4996954;28;20057;-73
2022/01/30 04:22:32;;;;;;;6.65;6.05;;;;;;;-142.02;100.00;61695.09;4999039;28;20738;-74
2022/01/30 04:25:17;;;;;;;4.03;3.65;;;;;;;-142.02;100.00;61695.09;5014842;28;20080;-74
2022/01/30 04:28:01;;;;;;;6.00;5.47;;;;;;;-142.02;100.00;61695.09;4997130;28;20074;-73
2022/01/30 04:30:55;;;;;;;4.40;4.05;;;;;;;-142.02;100.00;61695.09;4996098;28;20099;-74
2022/01/30 04:33:47;;;;;;;5.93;5.50;;;;;;;-142.02;100.00;61695.09;4998325;28;20061;-74
2022/01/30 04:36:43;;;;;;;6.18;4.95;;;;;;;-142.02;100.00;61695.09;4998778;28;20085;-73
2022/01/30 05:06:30;;;;;;;5.55;5.15;;;;;;;-142.02;100.00;61695.09;5015469;28;20065;-74
2022/01/30 05:09:13;;;;;;;5.25;4.85;;;;;;;-142.02;100.00;61695.09;4996522;28;20109;-74
2022/01/30 05:12:00;;;;;;;6.25;5.75;;;;;;;-142.02;100.00;61695.09;4998466;28;20133;-74
2022/01/30 05:15:02;;;;;;;5.75;5.20;;;;;;;-142.02;100.00;61695.09;4971382;28;20078;-74
2022/01/30 05:17:43;;;;;;;7.72;7.13;;;;;;;-142.02;100.00;61695.09;4991871;28;20042;-73
2022/01/30 05:20:16;;;;;;;4.65;4.25;;;;;;;-142.02;100.00;61695.09;4981076;28;20122;-73
2022/01/30 05:23:02;;;;;;;5.25;4.80;;;;;;;-142.02;100.00;61695.09;4996296;28;20064;-74
2022/01/30 05:25:37;;;;;;;6.70;6.20;;;;;;;-142.02;100.00;61695.09;4994760;28;20443;-72
2022/01/30 05:28:10;;;;;;;4.90;4.25;;;;;;;-142.02;100.00;61695.09;4979556;28;20046;-71
2022/01/30 05:30:55;;;;;;;5.22;4.82;;;;;;;-142.02;100.00;61695.09;4997544;28;20057;-72
2022/01/30 05:33:37;;;;;;;4.50;4.20;;;;;;;-142.02;100.00;61695.09;4994663;28;20054;-73
2022/01/30 05:36:30;;;;;;;4.32;4.05;;;;;;;-142.02;100.00;61695.09;4981018;28;20137;-72
2022/01/30 05:39:34;;;;;;;6.07;5.57;;;;;;;-142.02;100.00;61695.09;4970222;28;20046;-73
2022/01/30 05:42:19;;;;;;;3.25;3.05;;;;;;;-142.02;100.00;61695.09;4970073;28;20079;-73
2022/01/30 05:45:17;;;;;;;4.72;4.35;;;;;;;-142.02;100.00;61695.09;4988839;28;20517;-73
2022/01/30 05:48:01;;;;;;;4.15;3.85;;;;;;;-142.02;100.00;61695.09;4993979;28;20046;-73
2022/01/30 05:51:03;;;;;;;4.35;4.05;;;;;;;-142.02;100.00;61695.09;4989359;28;20082;-74
2022/01/30 05:53:39;;;;;;;3.53;3.22;;;;;;;-142.02;100.00;61695.09;4974292;28;20137;-73
2022/01/30 05:56:11;;;;;;;;;;;;;;;-142.02;100.00;61695.09;4958640;28;20058;-73
2022/01/30 05:58:37;;;;;;;3.95;3.65;;;;;;;-142.02;100.00;61695.09;4974342;28;20427;-73
2022/01/30 06:01:38;;;;;;;5.47;5.07;;;;;;;-142.02;100.00;61695.09;4974358;28;20077;-74
2022/01/30 06:04:14;;;;;;;2.72;2.53;;;;;;;-142.02;100.00;61695.09;4963453;28;20125;-73
2022/01/30 06:06:49;;;;;;;3.58;3.38;;;;;;;-142.02;100.00;61695.09;4961306;28;20081;-71
2022/01/30 06:11:47;;;;;;;3.70;3.40;;;;;;;-142.02;100.00;61695.09;4992326;28;20060;-71
2022/01/30 06:14:14;;;;;;;3.42;3.15;;;;;;;-142.02;100.00;61695.09;4994265;28;20081;-71
2022/01/30 06:16:41;;;;;;;4.93;4.63;;;;;;;-142.02;100.00;61695.09;4974509;28;20052;-71
2022/01/30 06:19:27;;;;;;;2.67;2.55;;;;;;;-142.02;100.00;61695.09;4976360;28;20510;-71
2022/01/30 06:22:16;;;;;;;3.30;3.08;;;;;;;-142.02;100.00;61695.09;4980986;28;20141;-71
2022/01/30 06:25:02;;;;;;;4.25;3.95;;;;;;;-142.02;100.00;61695.09;4995951;28;20208;-75
2022/01/30 06:27:48;;;;;;;4.53;4.22;;;;;;;-142.02;100.00;61695.09;4960249;28;20129;-71
2022/01/30 06:30:37;;;;;;;4.15;3.85;;;;;;;-142.02;100.00;61695.09;4979896;28;20125;-72
2022/01/30 06:33:36;;;;;;;4.72;4.32;;;;;;;-142.02;100.00;61695.09;4959684;28;20065;-72
2022/01/30 06:36:21;;;;;;;3.92;3.72;;;;;;;-142.02;100.00;61695.09;4975438;28;20144;-72
2022/01/30 06:38:53;;;;;;;3.35;3.15;;;;;;;-142.02;100.00;61695.09;4973406;28;20049;-72
2022/01/30 06:41:58;;;;;;;4.22;3.92;;;;;;;-142.02;100.00;61695.09;4968386;28;20580;-72
2022/01/30 06:45:02;;;;;;;3.65;3.40;;;;;;;-142.02;100.00;61695.09;4950801;29;20114;-72
2022/01/30 06:47:47;;;;;;;4.28;3.97;;;;;;;-142.02;100.00;61695.09;4950475;28;20051;-72
2022/01/30 06:50:32;;;;;;;3.97;3.50;;;;;;;-142.02;100.00;61695.09;4960307;28;20053;-72
2022/01/30 06:53:16;;;;;;;2.67;2.58;;;;;;;-142.02;100.00;61695.09;4971741;28;20050;-72
2022/01/30 06:56:01;;;;;;;2.63;2.53;;;;;;;-142.02;100.00;61695.09;4984697;28;20141;-72
2022/01/30 06:59:03;;;;;;;2.80;2.60;;;;;;;-142.02;100.00;61695.09;4949692;29;20055;-71
2022/01/30 07:01:49;;;;;;;3.78;3.50;;;;;;;-142.02;100.00;61695.09;4987575;28;20085;-72
2022/01/30 07:04:37;;;;;;;2.90;2.75;;;;;;;-142.02;100.00;61695.09;4989974;28;20129;-72
2022/01/30 07:07:14;;;;;;;3.40;3.10;;;;;;;-142.02;100.00;61695.09;4989040;28;20113;-71
2022/01/30 07:09:40;;;;;;;2.70;2.60;;;;;;;-142.02;100.00;61695.09;4989794;28;20054;-72
2022/01/30 07:12:07;;;;;;;3.45;3.25;;;;;;;-142.02;100.00;61695.09;4990695;28;20338;-72
2022/01/30 07:14:33;;;;;;;3.42;3.22;;;;;;;-142.02;100.00;61695.09;4990406;28;20042;-73
2022/01/30 07:16:59;;;;;;;4.03;3.72;;;;;;;-142.02;100.00;61695.09;4992505;28;20054;-72
2022/01/30 07:19:25;;;;;;;3.50;3.30;;;;;;;-142.02;100.00;61695.09;4991338;28;20529;-72
2022/01/30 07:21:52;;;;;;;3.00;2.80;;;;;;;-142.02;100.00;61695.09;5008253;28;20156;-72
2022/01/30 07:24:18;;;;;;;3.53;3.33;;;;;;;-142.02;100.00;61695.09;4978043;28;20050;-72
2022/01/30 07:26:44;;;;;;;3.03;2.83;;;;;;;-142.02;100.00;61695.09;4979401;28;20054;-73
2022/01/30 07:29:10;;;;;;;3.97;3.45;;;;;;;-142.02;100.00;61695.09;5011812;28;20042;-72
2022/01/30 07:31:36;;;;;;;3.88;3.60;;;;;;;-142.02;100.00;61695.09;5010404;28;20133;-72
2022/01/30 07:34:02;;;;;;;3.72;3.42;;;;;;;-142.02;100.00;61695.09;4992208;28;20050;-73
2022/01/30 07:36:29;;;;;;;3.83;3.55;;;;;;;-142.02;100.00;61695.09;5009884;28;20061;-72
2022/01/30 07:38:55;;;;;;;4.55;4.25;;;;;;;-142.02;100.00;61695.09;4992187;28;20140;-73
2022/01/30 07:41:21;;;;;;;4.22;3.92;;;;;;;-142.02;100.00;61695.09;5010071;28;20049;-73
2022/01/30 07:43:48;;;;;;;4.57;4.22;;;;;;;-142.02;100.00;61695.09;4973809;28;20609;-72
2022/01/30 07:46:18;;;;;;;4.43;4.13;;;;;;;-142.02;100.00;61695.09;4988991;28;20113;-73
2022/01/30 07:48:44;;;;;;;4.72;4.25;;;;;;;-142.02;100.00;61695.09;5010423;28;20053;-72
2022/01/30 07:51:10;;;;;;;5.03;3.63;;;;;;;-142.02;100.00;61695.09;5010144;28;20057;-71
2022/01/30 07:53:36;;;;;;;4.32;3.15;;;;;;;-142.02;100.00;61695.09;5009207;28;20077;-71
2022/01/30 07:56:04;;;;;;;3.72;3.53;;;;;;;-142.02;100.00;61695.09;4992282;28;20136;-71
2022/01/30 07:58:29;;;;;;;3.42;3.22;;;;;;;-142.02;100.00;61695.09;5008732;28;20058;-71
2022/01/30 08:00:55;;;;;;;3.63;3.33;;;;;;;-142.02;100.00;61695.09;5009401;28;20053;-72
2022/01/30 08:03:22;;;;;;;3.90;3.60;;;;;;;-142.02;100.00;61695.09;5008455;28;20081;-71
2022/01/30 08:05:48;;;;;;;3.17;2.97;;;;;;;-142.02;100.00;61695.09;4992199;28;20134;-71
2022/01/30 08:08:15;;;;;;;2.80;2.70;;;;;;;-142.02;100.00;61695.09;5008295;28;20142;-72
2022/01/30 08:10:42;;;;;;;3.17;2.97;;;;;;;-142.02;100.00;61695.09;4982241;28;20541;-71
2022/01/30 08:13:09;;;;;;;4.00;3.70;;;;;;;-142.02;100.00;61695.09;5026973;28;20045;-71
2022/01/30 08:15:34;;;;;;;3.00;2.80;;;;;;;-142.02;100.00;61695.09;5029960;28;20065;-73
2022/01/30 08:18:01;;;;;;;3.05;2.80;;;;;;;-142.02;100.00;61695.09;5030173;28;20053;-74
2022/01/30 08:20:28;;;;;;;2.35;2.25;;;;;;;-142.02;100.00;61695.09;5012398;28;20053;-70
2022/01/30 08:22:57;;;;;;;2.05;1.98;;;;;;;-142.02;100.00;61695.09;4993086;28;20080;-72
2022/01/30 08:25:24;;;;;;;1.95;1.85;;;;;;;-142.02;100.00;61695.09;5010586;28;20081;-72
2022/01/30 08:27:51;;;;;;;2.15;2.05;;;;;;;-142.02;100.00;61695.09;4992266;28;20054;-71
2022/01/30 08:30:17;;;;;;;2.05;1.95;;;;;;;-142.02;100.00;61695.09;5012199;28;20050;-72
2022/01/30 08:32:48;;;;;;;2.30;2.20;;;;;;;-142.02;100.00;61695.09;5012517;28;20049;-72
2022/01/30 08:35:15;;;;;;;2.15;2.05;;;;;;;-142.02;100.00;61695.09;4979182;28;20060;-72
2022/01/30 08:37:41;;;;;;;2.35;2.08;;;;;;;-142.02;100.00;61695.09;4980371;28;20144;-75
2022/01/30 08:40:12;;;;;;;1.77;1.70;;;;;;;-142.02;100.00;61695.09;4995621;28;20049;-72
2022/01/30 08:42:38;;;;;;;2.67;2.53;;;;;;;-142.02;100.00;61695.09;5011202;28;20046;-71
2022/01/30 08:45:05;;;;;;;2.60;2.40;;;;;;;-142.02;100.00;61695.09;4979373;28;20104;-71
2022/01/30 08:47:31;;;;;;;1.90;1.80;;;;;;;-142.02;100.00;61695.09;5013063;28;20076;-71
2022/01/30 08:49:57;;;;;;;2.00;1.90;;;;;;;-142.02;100.00;61695.09;5012729;28;20569;-70
2022/01/30 08:52:23;;;;;;;2.45;2.35;;;;;;;-142.02;100.00;61695.09;4995820;28;20061;-71
2022/01/30 08:54:49;;;;;;;2.10;2.00;;;;;;;-142.02;100.00;61695.09;4981230;28;20050;-71
2022/01/30 08:57:16;;;;;;;2.80;2.70;;;;;;;-142.02;100.00;61695.09;4996819;28;20057;-71
2022/01/30 08:59:42;;;;;;;2.78;2.30;;;;;;;-142.02;100.00;61695.09;5014059;28;20046;-70
2022/01/30 09:02:08;;;;;;;2.80;2.60;;;;;;;-142.02;100.00;61695.09;5013464;28;20054;-70
2022/01/30 09:04:35;;;;;;;2.50;2.40;;;;;;;-142.02;100.00;61695.09;5013284;28;20597;-71
2022/01/30 09:07:01;;;;;;;2.13;2.00;;;;;;;-142.02;100.00;61695.09;4989207;28;20052;-71
2022/01/30 09:09:27;;;;;;;3.08;2.78;;;;;;;-142.02;100.00;61695.09;4992895;28;20077;-71
2022/01/30 09:11:53;;;;;;;2.22;2.13;;;;;;;-142.02;100.00;61695.09;4993711;28;20050;-72
2022/01/30 09:14:21;;;;;;;2.97;2.78;;;;;;;-142.02;100.00;61695.09;4993442;28;20054;-71
2022/01/30 09:16:47;;;;;;;2.47;2.38;;;;;;;-142.02;100.00;61695.09;4990923;28;20122;-76
2022/01/30 09:19:14;;;;;;;3.50;3.20;;;;;;;-142.02;100.00;61695.09;5006442;28;20060;-71
2022/01/30 09:21:41;;;;;;;2.65;2.50;;;;;;;-142.02;100.00;61695.09;5011107;28;20085;-71
2022/01/30 09:24:07;;;;;;;2.70;2.50;;;;;;;-142.02;100.00;61695.09;4993647;28;20057;-71
2022/01/30 09:26:33;;;;;;;3.15;2.95;;;;;;;-142.02;100.00;61695.09;4993571;28;20521;-71
2022/01/30 09:28:59;;;;;;;2.90;2.70;;;;;;;-142.02;100.00;61695.09;4993692;28;20088;-71
2022/01/30 09:31:25;;;;;;;2.55;2.45;;;;;;;-142.02;100.00;61695.09;5010625;28;20413;-71
2022/01/30 09:33:52;;;;;;;2.40;2.30;;;;;;;-142.02;100.00;61695.09;5011179;28;20109;-71
2022/01/30 09:36:18;;;;;;;2.40;2.30;;;;;;;-142.02;100.00;61695.09;4993807;28;20541;-72
2022/01/30 09:38:44;;;;;;;2.25;1.90;;;;;;;-142.02;100.00;61695.09;5006970;28;20656;-72
2022/01/30 09:41:11;;;;;;;5.10;2.05;;;;;;;-142.02;100.00;61695.09;5004876;28;20097;-72
2022/01/30 09:43:37;;;;;;;1.73;1.65;;;;;;;-142.02;100.00;61695.09;5023735;28;20060;-71
2022/01/30 09:46:03;;;;;;;1.50;1.50;;;;;;;-142.02;100.00;61695.09;5031552;28;20073;-71
2022/01/30 09:48:32;;;;;;;1.98;1.88;;;;;;;-142.02;100.00;61695.09;5014821;28;20187;-72
2022/01/30 09:50:58;;;;;;;2.15;2.05;;;;;;;-142.02;100.00;61695.09;4978766;28;20500;-71
2022/01/30 09:53:24;;;;;;;2.22;2.13;;;;;;;-142.02;100.00;61695.09;4994366;28;20902;-72
2022/01/30 09:55:50;;;;;;;1.67;1.67;;;;;;;-142.02;100.00;61695.09;5012440;28;20057;-72
2022/01/30 09:58:17;;;;;;;2.03;1.92;;;;;;;-142.02;100.00;61695.09;5012583;28;20058;-72
2022/01/30 10:00:45;;;;;;;2.42;2.22;;;;;;;-142.02;100.00;61695.09;5005494;28;20045;-72
2022/01/30 10:03:11;;;;;;;2.80;2.60;;;;;;;-142.02;100.00;61695.09;4999183;28;20053;-72
2022/01/30 10:05:38;;;;;;;2.10;2.00;;;;;;;-142.02;100.00;61695.09;5032125;28;20611;-73
2022/01/30 10:08:05;;;;;;;1.70;1.60;;;;;;;-142.02;100.00;61695.09;4982674;28;20058;-72
2022/01/30 10:10:33;;;;;;;1.65;1.65;;;;;;;-142.02;100.00;61695.09;4999613;28;20157;-72
2022/01/30 10:13:04;;;;;;;1.70;1.70;;;;;;;-142.02;100.00;61695.09;5015898;28;20049;-72
2022/01/30 10:15:31;;;;;;;2.10;2.03;;;;;;;-142.02;100.00;61695.09;5032108;28;20076;-71
2022/01/30 10:17:57;;;;;;;1.75;1.65;;;;;;;-142.02;100.00;61695.09;5013993;28;20048;-72
2022/01/30 10:20:25;;;;;;;2.72;2.55;;;;;;;-142.02;100.00;61695.09;5013277;28;20517;-72
2022/01/30 10:22:55;;;;;;;1.63;1.63;;;;;;;-142.02;100.00;61695.09;5014535;28;20054;-73
2022/01/30 10:25:25;;;;;;;1.83;1.73;;;;;;;-142.02;100.00;61695.09;4978389;28;20519;-73
2022/01/30 10:28:11;;;;;;;1.60;1.60;;;;;;;-142.02;100.00;61695.09;5012047;28;20116;-73
2022/01/30 10:30:41;;;;;;;2.30;2.20;;;;;;;-142.02;100.00;61695.09;4994456;28;20049;-72
2022/01/30 10:33:12;;;;;;;1.85;1.75;;;;;;;-142.02;100.00;61695.09;4978710;28;20572;-72
2022/01/30 10:35:51;;;;;;;1.45;1.42;;;;;;;-142.02;100.00;61695.09;5029570;28;20524;-73
2022/01/30 10:38:27;;;;;;;2.08;1.98;;;;;;;-142.02;100.00;61695.09;5031493;28;20049;-72
2022/01/30 10:40:57;;;;;;;1.77;1.67;;;;;;;-142.02;100.00;61695.09;4998378;28;20498;-76
2022/01/30 10:43:45;;;;;;;2.78;2.60;;;;;;;-142.02;100.00;61695.09;4994502;28;20049;-72
2022/01/30 10:46:48;;;;;;;2.75;2.42;;;;;;;-142.02;100.00;61695.09;4980715;28;20050;-72
2022/01/30 10:49:21;;;;;;;2.47;2.30;;;;;;;-142.02;100.00;61695.09;5012278;28;20046;-72
2022/01/30 10:52:01;;;;;;;1.98;1.92;;;;;;;-142.02;100.00;61695.09;4993530;28;20598;-72
2022/01/30 10:54:32;;;;;;;3.10;2.47;;;;;;;-142.02;100.00;61695.09;4993815;28;20120;-73
2022/01/30 10:57:09;;;;;;;1.88;1.77;;;;;;;-142.02;100.00;61695.09;4980076;28;20478;-74
2022/01/30 10:59:41;;;;;;;2.15;2.05;;;;;;;-142.02;100.00;61695.09;4997760;28;20045;-73
2022/01/30 11:02:11;;;;;;;2.53;2.42;;;;;;;-142.02;100.00;61695.09;5012374;28;20046;-73
2022/01/30 11:04:37;;;;;;;2.35;2.25;;;;;;;-142.02;100.00;61695.09;4976647;28;20510;-73
2022/01/30 11:07:04;;;;;;;1.60;1.60;;;;;;;-142.02;100.00;61695.09;5010332;28;20077;-72
2022/01/30 11:09:35;;;;;;;1.92;1.83;;;;;;;-142.02;100.00;61695.09;5006769;28;20053;-74
2022/01/30 11:12:04;;;;;;;1.95;1.85;;;;;;;-142.02;100.00;61695.09;5031641;28;20056;-74
2022/01/30 11:15:17;;;;;;;1.60;1.50;;;;;;;-142.02;100.00;61695.09;5012524;28;20053;-74
2022/01/30 11:17:22;;;;;;;1.63;1.63;;;;;;;-142.02;100.00;61695.09;5021928;28;20049;-74
2022/01/30 11:19:51;;;;;;;2.25;2.15;;;;;;;-142.02;100.00;61695.09;5012949;28;20068;-73
2022/01/30 11:22:19;;;;;;;1.92;1.90;;;;;;;-142.02;100.00;61695.09;5029184;28;20075;-73
2022/01/30 11:24:50;;;;;;;1.98;1.88;;;;;;;-142.02;100.00;61695.09;5008542;28;20058;-73
2022/01/30 11:27:17;;;;;;;4.00;2.20;;;;;;;-142.02;100.00;61695.09;5009733;28;20043;-73
2022/01/30 11:29:44;;;;;;;1.80;1.70;;;;;;;-142.02;100.00;61695.09;5022400;28;20046;-73
2022/01/30 11:32:10;;;;;;;1.90;1.80;;;;;;;-142.02;100.00;61695.09;4991528;28;20057;-73
2022/01/30 11:34:37;;;;;;;2.55;2.45;;;;;;;-142.02;100.00;61695.09;5007455;28;20372;-68
2022/01/30 11:37:04;;;;;;;2.13;2.03;;;;;;;-142.02;100.00;61695.09;4974516;28;20057;-68
2022/01/30 11:39:30;;;;;;;2.25;2.15;;;;;;;-142.02;100.00;61695.09;4975201;28;20046;-68
2022/01/30 11:42:11;;;;;;;2.63;2.47;;;;;;;-142.02;100.00;61695.09;5008889;28;20045;-67
2022/01/30 11:44:44;;;;;;;;;;;;;;;-142.02;100.00;61695.09;4991801;28;20136;-68
2022/01/30 11:47:10;;;;;;;2.33;2.22;;;;;;;-142.02;100.00;61695.09;4991404;28;19921;-71
2022/01/30 11:49:43;;;;;;;1.88;1.80;;;;;;;-142.02;100.00;61695.09;4988230;28;20603;-67
2022/01/30 11:52:13;;;;;;;2.80;2.60;;;;;;;-142.02;100.00;61695.09;5007589;28;20054;-68
2022/01/30 11:54:41;;;;;;;3.00;2.80;;;;;;;-142.02;100.00;61695.09;5006336;28;20057;-67
2022/01/30 11:57:23;;;;;;;2.42;2.33;;;;;;;-142.02;100.00;61695.09;5007330;28;20053;-67
2022/01/30 11:59:50;;;;;;;2.53;2.42;;;;;;;-142.02;100.00;61695.09;4989713;28;20050;-67
2022/01/30 12:02:33;;;;;;;2.40;2.30;;;;;;;-142.02;100.00;61695.09;5007273;28;20057;-67
2022/01/30 12:05:01;;;;;;;2.58;2.47;;;;;;;-142.02;100.00;61695.09;4994713;28;20575;-67
2022/01/30 12:07:45;;;;;;;2.40;2.30;;;;;;;-142.02;100.00;61695.09;5014543;28;20140;-70
2022/01/30 12:10:30;;;;;;;3.90;2.80;;;;;;;-142.02;100.00;61695.09;5013908;28;20502;-67
2022/01/30 12:13:03;;;;;;;2.55;2.45;;;;;;;-142.02;100.00;61695.09;5013197;28;20050;-67
2022/01/30 12:15:41;;;;;;;2.90;2.70;;;;;;;-142.02;100.00;61695.09;4995314;28;20701;-68
2022/01/30 12:18:11;;;;;;;3.00;2.80;;;;;;;-142.02;100.00;61695.09;4995466;28;20061;-67
2022/01/30 12:20:57;;;;;;;3.42;3.22;;;;;;;-142.02;100.00;61695.09;4995205;28;20053;-68
2022/01/30 12:23:27;;;;;;;2.85;2.65;;;;;;;-142.02;100.00;61695.09;5012742;28;20050;-68
2022/01/30 12:26:04;;;;;;;2.70;2.50;;;;;;;-142.02;100.00;61695.09;4995548;28;20559;-68
2022/01/30 12:28:43;;;;;;;2.90;2.70;;;;;;;-142.02;100.00;61695.09;4980012;28;20042;-69